Terminal Aerodrome Forecast
Issued by NWS Jackson, MS

Home | Current Version | Previous Version | Text Only | Print | Product List | Glossary On
Versions: 1 2 3 4 5 6 7 8 9 10 11 12 13 14 15 16 17 18 19
880
FTUS44 KJAN 231720
TAFHBG
TAF
KHBG 231720Z 2318/2418 05004KT P6SM SCT030
     FM232000 08006KT P6SM VCTS BKN035CB BKN100
     FM240000 07003KT P6SM SCT070 BKN100
     FM241100 00000KT 4SM BR FEW005 SCT250
     FM241400 36003KT P6SM FEW250=

USA.gov is the U.S. government's official web portal to all federal, state and local government web resources and services.